Time;durP1;ratioP1;P1;durP2;ratioP2;P2;SDS_P1;SDS_P2;PMS_P1;PMS_P2;Temp;Humidity;BMP_temperature;BMP_pressure;BME280_temperature;BME280_humidity;BME280_pressure;Samples;Min_cycle;Max_cycle;Signal;HPM_P1;HPM_P2
2023/06/02 00:00:38;;;;;;;10.07;4.95;;;;;;;;;;10432820;28;20052;-56
2023/06/02 00:05:39;;;;;;;6.57;4.82;;;;;;;;;;10441884;28;20095;-58
2023/06/02 00:10:40;;;;;;;7.20;5.20;;;;;;;;;;10431012;28;20017;-61
2023/06/02 00:15:41;;;;;;;6.82;5.38;;;;;;;;;;10444802;28;20021;-61
2023/06/02 00:20:42;;;;;;;10.43;5.35;;;;;;;;;;10436953;28;20477;-61
2023/06/02 00:25:42;;;;;;;7.15;5.35;;;;;;;;;;10438195;28;20160;-57
2023/06/02 00:30:43;;;;;;;9.98;5.55;;;;;;;;;;10434502;28;20028;-56
2023/06/02 00:35:44;;;;;;;8.38;5.80;;;;;;;;;;10446730;28;20026;-57
2023/06/02 00:40:44;;;;;;;5.90;5.03;;;;;;;;;;10443370;28;20021;-56
2023/06/02 00:45:45;;;;;;;8.18;5.38;;;;;;;;;;10436147;28;20041;-53
2023/06/02 00:50:46;;;;;;;8.50;5.82;;;;;;;;;;10428395;28;20385;-53
2023/06/02 00:55:47;;;;;;;7.70;4.88;;;;;;;;;;10450492;28;20084;-58
2023/06/02 01:00:47;;;;;;;8.90;5.30;;;;;;;;;;10427428;28;20028;-59
2023/06/02 01:05:52;;;;;;;7.25;5.45;;;;;;;;;;10431029;28;20041;-60
2023/06/02 01:10:53;;;;;;;8.88;5.55;;;;;;;;;;10427724;28;20374;-53
2023/06/02 01:15:53;;;;;;;8.52;5.63;;;;;;;;;;10430185;28;20025;-58
2023/06/02 01:20:58;;;;;;;7.78;5.68;;;;;;;;;;10420876;28;20087;-57
2023/06/02 01:26:00;;;;;;;9.18;5.97;;;;;;;;;;10419817;28;20531;-58
2023/06/02 01:31:14;;;;;;;10.15;5.78;;;;;;;;;;10443702;28;20429;-58
2023/06/02 01:36:20;;;;;;;7.70;5.65;;;;;;;;;;10431164;28;20039;-60
2023/06/02 01:41:21;;;;;;;8.40;5.82;;;;;;;;;;10432762;28;20021;-59
2023/06/02 01:46:25;;;;;;;11.10;6.25;;;;;;;;;;10418613;28;20068;-60
2023/06/02 01:51:26;;;;;;;11.07;6.03;;;;;;;;;;10431218;28;20025;-60
2023/06/02 01:56:26;;;;;;;7.88;5.78;;;;;;;;;;10449129;28;20029;-60
2023/06/02 02:01:27;;;;;;;12.10;5.82;;;;;;;;;;10449276;28;20056;-58
2023/06/02 02:06:30;;;;;;;8.88;6.38;;;;;;;;;;10448697;28;20284;-60
2023/06/02 02:11:31;;;;;;;9.18;5.90;;;;;;;;;;10437649;28;20489;-59
2023/06/02 02:16:31;;;;;;;8.02;5.97;;;;;;;;;;10441346;28;20028;-58
2023/06/02 02:21:32;;;;;;;8.50;6.03;;;;;;;;;;10423878;28;20293;-61
2023/06/02 02:26:33;;;;;;;7.57;5.75;;;;;;;;;;10442484;28;20041;-60
2023/06/02 02:31:34;;;;;;;8.25;5.60;;;;;;;;;;10425707;28;20029;-60
2023/06/02 02:36:34;;;;;;;8.35;5.70;;;;;;;;;;10435158;28;20268;-60
2023/06/02 02:41:35;;;;;;;9.38;6.10;;;;;;;;;;10447052;28;20025;-60
2023/06/02 02:46:35;;;;;;;6.45;5.78;;;;;;;;;;10446079;28;20052;-60
2023/06/02 02:51:37;;;;;;;8.02;5.80;;;;;;;;;;10439654;28;20067;-60
2023/06/02 02:56:39;;;;;;;13.00;5.60;;;;;;;;;;10445862;28;20017;-57
2023/06/02 03:01:43;;;;;;;8.63;5.85;;;;;;;;;;10438947;28;20025;-56
2023/06/02 03:06:48;;;;;;;10.05;6.05;;;;;;;;;;10446818;28;20037;-57
2023/06/02 03:11:49;;;;;;;8.50;5.88;;;;;;;;;;10435142;28;20025;-56
2023/06/02 03:16:50;;;;;;;7.32;5.72;;;;;;;;;;10445553;28;20049;-58
2023/06/02 03:21:52;;;;;;;10.13;5.80;;;;;;;;;;10445516;28;20029;-58
2023/06/02 03:26:55;;;;;;;6.78;5.97;;;;;;;;;;10441277;28;20036;-56
2023/06/02 03:31:55;;;;;;;7.25;5.68;;;;;;;;;;10429099;28;20144;-56
2023/06/02 03:36:56;;;;;;;8.07;5.55;;;;;;;;;;10446483;28;20029;-59
2023/06/02 03:41:57;;;;;;;11.05;5.63;;;;;;;;;;10446163;28;20036;-57
2023/06/02 03:46:57;;;;;;;10.57;5.75;;;;;;;;;;10445085;28;20045;-59
2023/06/02 03:51:58;;;;;;;7.70;5.00;;;;;;;;;;10444662;28;20484;-58
2023/06/02 03:56:59;;;;;;;9.10;5.70;;;;;;;;;;10444763;28;20090;-56
2023/06/02 04:02:00;;;;;;;9.15;5.50;;;;;;;;;;10457284;28;20037;-58
2023/06/02 04:07:02;;;;;;;7.10;4.93;;;;;;;;;;10459376;28;20033;-58
2023/06/02 04:12:02;;;;;;;7.88;5.30;;;;;;;;;;10458109;28;20060;-58
2023/06/02 04:17:03;;;;;;;7.22;5.18;;;;;;;;;;10458945;28;20099;-57
2023/06/02 04:22:05;;;;;;;7.82;4.85;;;;;;;;;;10457516;28;20016;-57
2023/06/02 04:27:06;;;;;;;13.15;5.25;;;;;;;;;;10453511;28;20365;-58
2023/06/02 04:32:07;;;;;;;11.48;5.18;;;;;;;;;;10457655;28;20025;-58
2023/06/02 04:37:07;;;;;;;7.93;4.85;;;;;;;;;;10448680;28;20113;-58
2023/06/02 04:42:08;;;;;;;6.53;5.10;;;;;;;;;;10456475;28;20044;-58
2023/06/02 04:47:08;;;;;;;10.27;5.57;;;;;;;;;;10445246;28;20126;-58
2023/06/02 04:52:09;;;;;;;9.85;5.05;;;;;;;;;;10455254;28;20033;-59
2023/06/02 04:57:10;;;;;;;8.35;5.15;;;;;;;;;;10456824;28;20021;-58
2023/06/02 05:02:11;;;;;;;8.65;5.03;;;;;;;;;;10454917;28;20033;-61
2023/06/02 05:07:12;;;;;;;7.32;4.70;;;;;;;;;;10446848;28;20035;-62
2023/06/02 05:12:12;;;;;;;5.85;4.32;;;;;;;;;;10435243;28;20398;-61
2023/06/02 05:17:20;;;;;;;10.00;4.75;;;;;;;;;;10446743;28;20021;-60
2023/06/02 05:22:21;;;;;;;5.00;3.90;;;;;;;;;;10449815;28;20083;-59
2023/06/02 05:27:22;;;;;;;7.28;4.78;;;;;;;;;;10441235;28;20088;-59
2023/06/02 05:32:24;;;;;;;7.90;4.43;;;;;;;;;;10440486;28;20081;-56
2023/06/02 05:37:24;;;;;;;7.07;4.70;;;;;;;;;;10442737;28;20036;-54
2023/06/02 05:42:25;;;;;;;7.97;4.55;;;;;;;;;;10440710;28;20037;-58
2023/06/02 05:47:26;;;;;;;6.68;4.57;;;;;;;;;;10434262;28;20132;-59
2023/06/02 05:52:26;;;;;;;5.53;4.35;;;;;;;;;;10425455;28;20026;-60
2023/06/02 05:57:27;;;;;;;5.60;4.30;;;;;;;;;;10427751;28;20032;-59
2023/06/02 06:02:27;;;;;;;20.65;5.38;;;;;;;;;;10428812;28;20049;-59
2023/06/02 06:07:28;;;;;;;5.82;4.53;;;;;;;;;;10439356;28;20570;-55
2023/06/02 06:12:29;;;;;;;5.85;5.03;;;;;;;;;;10420675;28;20492;-59
2023/06/02 06:17:29;;;;;;;5.68;4.75;;;;;;;;;;10427274;28;20499;-59
2023/06/02 06:22:30;;;;;;;5.10;4.47;;;;;;;;;;10427333;28;20024;-59
2023/06/02 06:27:31;;;;;;;7.50;4.18;;;;;;;;;;10437956;28;20481;-54
2023/06/02 06:32:32;;;;;;;12.73;4.32;;;;;;;;;;10430150;28;20021;-59
2023/06/02 06:37:32;;;;;;;6.57;5.25;;;;;;;;;;10438338;28;20396;-53
2023/06/02 06:42:33;;;;;;;10.05;4.32;;;;;;;;;;10435806;28;20044;-55
2023/06/02 06:47:33;;;;;;;6.30;4.95;;;;;;;;;;10445409;28;20032;-54
2023/06/02 06:52:34;;;;;;;6.32;4.60;;;;;;;;;;10423795;28;20030;-57
2023/06/02 06:57:34;;;;;;;9.18;4.85;;;;;;;;;;10446278;28;20032;-57
2023/06/02 07:02:35;;;;;;;6.93;5.28;;;;;;;;;;10444160;28;20044;-55
2023/06/02 07:07:36;;;;;;;7.18;5.53;;;;;;;;;;10436775;28;20476;-54
2023/06/02 07:12:36;;;;;;;6.22;4.70;;;;;;;;;;10432000;28;20075;-55
2023/06/02 07:17:40;;;;;;;11.90;5.35;;;;;;;;;;10436143;28;20029;-54
2023/06/02 07:22:41;;;;;;;8.00;4.88;;;;;;;;;;10444258;28;20104;-53
2023/06/02 07:27:41;;;;;;;8.30;5.47;;;;;;;;;;10441036;28;20025;-55
2023/06/02 07:32:42;;;;;;;6.60;4.80;;;;;;;;;;10431923;28;20080;-54
2023/06/02 07:37:43;;;;;;;9.73;5.15;;;;;;;;;;10438731;28;20036;-52
2023/06/02 07:42:43;;;;;;;6.60;5.18;;;;;;;;;;10420326;28;20307;-52
2023/06/02 07:47:45;;;;;;;9.30;5.80;;;;;;;;;;10436065;28;20033;-53
2023/06/02 07:52:47;;;;;;;7.13;5.25;;;;;;;;;;10424431;28;20033;-54
2023/06/02 07:57:47;;;;;;;9.32;5.40;;;;;;;;;;10445039;28;20037;-53
2023/06/02 08:02:48;;;;;;;8.50;5.30;;;;;;;;;;10432477;28;20086;-53
2023/06/02 08:07:49;;;;;;;7.97;4.95;;;;;;;;;;10438208;28;20036;-56
2023/06/02 08:12:49;;;;;;;15.23;5.22;;;;;;;;;;10443445;28;20029;-57
2023/06/02 08:17:50;;;;;;;11.85;5.18;;;;;;;;;;10421267;28;20030;-56
2023/06/02 08:22:50;;;;;;;11.85;5.22;;;;;;;;;;10429822;28;20025;-56
2023/06/02 08:27:51;;;;;;;9.05;5.43;;;;;;;;;;10448229;28;20036;-55
2023/06/02 08:32:52;;;;;;;9.68;5.25;;;;;;;;;;10410246;28;20026;-55
2023/06/02 08:37:53;;;;;;;9.45;5.50;;;;;;;;;;10425887;28;20476;-56
2023/06/02 08:42:57;;;;;;;8.85;5.05;;;;;;;;;;10418554;28;20041;-55
2023/06/02 08:47:58;;;;;;;11.90;5.22;;;;;;;;;;10444270;28;20124;-55
2023/06/02 08:53:03;;;;;;;6.10;5.18;;;;;;;;;;10416158;28;20515;-56
2023/06/02 08:58:04;;;;;;;8.68;5.47;;;;;;;;;;10416154;28;20067;-54
2023/06/02 09:03:05;;;;;;;8.40;4.93;;;;;;;;;;10424075;28;20045;-56
2023/06/02 09:08:15;;;;;;;10.75;4.80;;;;;;;;;;10419540;28;20032;-54
2023/06/02 09:13:32;;;;;;;13.35;6.07;;;;;;;;;;10421453;28;20087;-55
2023/06/02 09:18:32;;;;;;;10.35;5.70;;;;;;;;;;10424750;28;20114;-54
2023/06/02 09:23:45;;;;;;;7.65;5.15;;;;;;;;;;10455883;28;20079;-56
2023/06/02 09:28:45;;;;;;;9.23;5.50;;;;;;;;;;10419131;28;20039;-54
2023/06/02 09:33:59;;;;;;;7.65;5.40;;;;;;;;;;10413475;28;20032;-53
2023/06/02 09:39:03;;;;;;;8.98;5.57;;;;;;;;;;10413132;28;20022;-56
2023/06/02 09:44:14;;;;;;;10.07;5.60;;;;;;;;;;10413256;28;20046;-54
2023/06/02 09:49:15;;;;;;;6.95;5.15;;;;;;;;;;10413874;28;20448;-54
2023/06/02 09:54:16;;;;;;;8.38;4.93;;;;;;;;;;10413371;28;20029;-56
2023/06/02 09:59:17;;;;;;;7.22;5.50;;;;;;;;;;10431555;28;20120;-56
2023/06/02 10:04:18;;;;;;;9.88;5.75;;;;;;;;;;10426189;28;20436;-56
2023/06/02 10:09:46;;;;;;;6.32;5.35;;;;;;;;;;10444186;28;20083;-54
2023/06/02 10:15:16;;;;;;;10.57;5.03;;;;;;;;;;10453043;28;20484;-56
2023/06/02 10:20:22;;;;;;;15.18;6.20;;;;;;;;;;10438444;28;20032;-54
2023/06/02 10:25:56;;;;;;;13.93;5.13;;;;;;;;;;10435412;28;20036;-54
2023/06/02 10:31:08;;;;;;;7.82;5.22;;;;;;;;;;10453374;28;20020;-56
2023/06/02 10:36:09;;;;;;;9.20;5.25;;;;;;;;;;10453668;28;20219;-53
2023/06/02 10:41:10;;;;;;;10.65;5.30;;;;;;;;;;10453136;28;20032;-54
2023/06/02 10:46:21;;;;;;;9.18;5.10;;;;;;;;;;10415990;28;20045;-54
2023/06/02 10:51:22;;;;;;;6.68;4.95;;;;;;;;;;10411981;28;20029;-53
2023/06/02 10:56:43;;;;;;;10.52;4.90;;;;;;;;;;10440338;28;20032;-56
2023/06/02 11:01:51;;;;;;;8.65;5.85;;;;;;;;;;10452576;28;20036;-53
2023/06/02 11:07:25;;;;;;;8.60;5.07;;;;;;;;;;10451893;28;20056;-53
2023/06/02 11:12:51;;;;;;;8.48;5.53;;;;;;;;;;10451636;28;20357;-54
2023/06/02 11:17:51;;;;;;;7.40;5.50;;;;;;;;;;10451739;28;20021;-55
2023/06/02 11:23:06;;;;;;;8.55;5.72;;;;;;;;;;10451327;28;20021;-54
2023/06/02 11:28:17;;;;;;;9.77;5.80;;;;;;;;;;10451504;28;20057;-56
2023/06/02 11:33:18;;;;;;;10.95;5.68;;;;;;;;;;10433818;28;20051;-54
2023/06/02 11:38:19;;;;;;;9.00;5.25;;;;;;;;;;10451021;28;20025;-52
2023/06/02 11:43:21;;;;;;;9.57;5.68;;;;;;;;;;10450636;28;20563;-57
2023/06/02 11:48:25;;;;;;;6.63;5.45;;;;;;;;;;10450327;28;20064;-59
2023/06/02 11:53:26;;;;;;;11.05;5.78;;;;;;;;;;10433526;28;20052;-58
2023/06/02 11:58:29;;;;;;;9.65;5.70;;;;;;;;;;10450616;28;20048;-58
2023/06/02 12:03:30;;;;;;;11.93;6.20;;;;;;;;;;10450312;28;20116;-58
2023/06/02 12:08:31;;;;;;;9.60;5.72;;;;;;;;;;10450301;28;20036;-59
2023/06/02 12:13:32;;;;;;;8.90;5.53;;;;;;;;;;10450137;28;20507;-56
2023/06/02 12:18:33;;;;;;;14.80;5.75;;;;;;;;;;10421923;28;20045;-57
2023/06/02 12:23:44;;;;;;;10.48;6.10;;;;;;;;;;10438614;28;20032;-57
2023/06/02 12:28:46;;;;;;;14.40;5.43;;;;;;;;;;10457629;28;20033;-56
2023/06/02 12:33:46;;;;;;;10.68;5.43;;;;;;;;;;10441726;28;20033;-57
2023/06/02 12:38:47;;;;;;;7.72;5.38;;;;;;;;;;10458173;28;20032;-54
2023/06/02 12:43:48;;;;;;;9.80;5.30;;;;;;;;;;10439759;28;20045;-57
2023/06/02 12:48:48;;;;;;;6.30;4.82;;;;;;;;;;10445781;28;20048;-57
2023/06/02 12:53:49;;;;;;;9.35;4.90;;;;;;;;;;10497926;28;20037;-57
2023/06/02 12:58:50;;;;;;;6.65;5.18;;;;;;;;;;10498501;28;20059;-57
2023/06/02 13:03:52;;;;;;;9.63;5.15;;;;;;;;;;10480346;28;20103;-56
2023/06/02 13:08:52;;;;;;;8.48;5.55;;;;;;;;;;10498120;28;20036;-56
2023/06/02 13:13:53;;;;;;;8.88;5.20;;;;;;;;;;10498555;28;20028;-56
2023/06/02 13:18:54;;;;;;;12.25;5.03;;;;;;;;;;10497841;28;20025;-57
2023/06/02 13:23:57;;;;;;;8.60;4.97;;;;;;;;;;10497589;28;20039;-57
2023/06/02 13:28:57;;;;;;;8.45;5.18;;;;;;;;;;10497462;28;20033;-56
2023/06/02 13:33:58;;;;;;;5.85;4.53;;;;;;;;;;10496058;28;20032;-56
2023/06/02 13:38:58;;;;;;;5.82;4.65;;;;;;;;;;10497166;28;20029;-54
2023/06/02 13:43:59;;;;;;;11.50;4.82;;;;;;;;;;10497005;28;20051;-56
2023/06/02 13:48:59;;;;;;;6.03;4.55;;;;;;;;;;10497118;28;20035;-57
2023/06/02 13:54:00;;;;;;;9.98;5.07;;;;;;;;;;10496408;28;20373;-57
2023/06/02 13:59:00;;;;;;;7.38;5.05;;;;;;;;;;10496485;28;20392;-57
2023/06/02 14:04:01;;;;;;;6.38;4.75;;;;;;;;;;10496341;28;20376;-56
2023/06/02 14:09:07;;;;;;;8.25;4.75;;;;;;;;;;10495848;28;20052;-56
2023/06/02 14:14:08;;;;;;;9.57;4.30;;;;;;;;;;10496040;28;20029;-56
2023/06/02 14:19:09;;;;;;;7.35;4.88;;;;;;;;;;10495521;28;20032;-57
2023/06/02 14:24:10;;;;;;;8.73;4.93;;;;;;;;;;10495097;28;20033;-57
2023/06/02 14:29:10;;;;;;;7.72;4.40;;;;;;;;;;10495232;28;20503;-57
2023/06/02 14:34:11;;;;;;;6.05;4.75;;;;;;;;;;10494866;28;20021;-57
2023/06/02 14:39:12;;;;;;;6.70;4.80;;;;;;;;;;10494428;28;20048;-53
2023/06/02 14:44:12;;;;;;;7.03;4.22;;;;;;;;;;10494099;28;20052;-57
2023/06/02 14:49:13;;;;;;;8.13;4.88;;;;;;;;;;10494554;28;20062;-55
2023/06/02 14:54:13;;;;;;;6.55;4.90;;;;;;;;;;10493633;28;20032;-58
2023/06/02 14:59:17;;;;;;;4.82;4.13;;;;;;;;;;10493978;28;20033;-57
2023/06/02 15:04:17;;;;;;;5.18;4.35;;;;;;;;;;10493392;28;20119;-57
2023/06/02 15:09:18;;;;;;;5.80;4.70;;;;;;;;;;10493508;28;20031;-57
2023/06/02 15:14:20;;;;;;;8.00;4.50;;;;;;;;;;10493171;28;20431;-57
2023/06/02 15:19:21;;;;;;;5.15;4.22;;;;;;;;;;10493531;28;20093;-57
2023/06/02 15:24:22;;;;;;;4.85;4.10;;;;;;;;;;10493121;28;20032;-57
2023/06/02 15:29:22;;;;;;;4.38;3.90;;;;;;;;;;10474968;28;20036;-58
2023/06/02 15:34:23;;;;;;;4.78;4.00;;;;;;;;;;10492612;28;20025;-55
2023/06/02 15:39:24;;;;;;;6.30;3.90;;;;;;;;;;10492430;28;20024;-56
2023/06/02 15:44:25;;;;;;;4.00;3.60;;;;;;;;;;10492320;28;20048;-57
2023/06/02 15:49:27;;;;;;;4.68;3.90;;;;;;;;;;10492280;28;20028;-57
2023/06/02 15:54:27;;;;;;;3.95;3.55;;;;;;;;;;10491814;28;20032;-56
2023/06/02 15:59:28;;;;;;;4.45;3.92;;;;;;;;;;10492999;28;20110;-57
2023/06/02 16:04:29;;;;;;;4.35;3.95;;;;;;;;;;10491920;28;20062;-57
2023/06/02 16:09:31;;;;;;;4.65;3.72;;;;;;;;;;10491871;28;20043;-58
2023/06/02 16:14:31;;;;;;;5.65;4.03;;;;;;;;;;10492139;28;20035;-57
2023/06/02 16:19:32;;;;;;;3.92;3.60;;;;;;;;;;10491685;28;20456;-58
2023/06/02 16:24:33;;;;;;;4.13;3.72;;;;;;;;;;10491789;28;20059;-55
2023/06/02 16:29:33;;;;;;;4.18;3.67;;;;;;;;;;10491522;28;20045;-57
2023/06/02 16:34:34;;;;;;;5.75;4.50;;;;;;;;;;10491430;28;20077;-57
2023/06/02 16:39:35;;;;;;;4.75;4.30;;;;;;;;;;10491747;28;20082;-57
2023/06/02 16:44:35;;;;;;;4.43;4.03;;;;;;;;;;10490985;28;20048;-58
2023/06/02 16:49:37;;;;;;;4.35;3.95;;;;;;;;;;10491624;28;20028;-57
2023/06/02 16:54:38;;;;;;;4.13;3.63;;;;;;;;;;10490858;28;20057;-57
2023/06/02 16:59:38;;;;;;;5.78;4.30;;;;;;;;;;10491035;28;20105;-57
2023/06/02 17:04:39;;;;;;;5.28;3.78;;;;;;;;;;10491013;28;20395;-58
2023/06/02 17:09:40;;;;;;;4.93;3.78;;;;;;;;;;10498278;28;20375;-57
2023/06/02 17:14:40;;;;;;;4.35;3.92;;;;;;;;;;10497844;28;20429;-58
2023/06/02 17:19:42;;;;;;;4.55;3.70;;;;;;;;;;10497887;28;20028;-58
2023/06/02 17:24:42;;;;;;;4.20;3.80;;;;;;;;;;10497640;28;20028;-57
2023/06/02 17:29:43;;;;;;;5.15;3.72;;;;;;;;;;10497369;28;20427;-57
2023/06/02 17:34:45;;;;;;;4.43;3.97;;;;;;;;;;10497239;28;20040;-58
2023/06/02 17:39:46;;;;;;;4.97;3.70;;;;;;;;;;10497432;28;20172;-57
2023/06/02 17:44:47;;;;;;;4.20;3.60;;;;;;;;;;10496485;28;20192;-56
2023/06/02 17:49:48;;;;;;;4.95;3.80;;;;;;;;;;10496797;28;20508;-58
2023/06/02 17:54:48;;;;;;;5.05;3.67;;;;;;;;;;10496406;28;20365;-57
2023/06/02 17:59:50;;;;;;;4.47;3.63;;;;;;;;;;10496240;28;20020;-57
2023/06/02 18:04:52;;;;;;;6.32;4.25;;;;;;;;;;10496834;28;20033;-56
2023/06/02 18:09:53;;;;;;;5.13;3.40;;;;;;;;;;10495879;28;20028;-56
2023/06/02 21:08:01;;;;;;;4.82;3.33;;;;;;;;;;10569907;27;20619;-56
2023/06/02 21:13:02;;;;;;;5.55;2.90;;;;;;;;;;10527604;28;20032;-57
2023/06/02 21:18:02;;;;;;;4.57;3.30;;;;;;;;;;10527727;28;20032;-55
2023/06/02 21:23:03;;;;;;;8.00;3.20;;;;;;;;;;10528124;28;20085;-54
2023/06/02 21:28:04;;;;;;;6.32;3.60;;;;;;;;;;10527091;28;20040;-56
2023/06/02 21:33:05;;;;;;;3.63;3.22;;;;;;;;;;10527033;28;20020;-56
2023/06/02 21:38:06;;;;;;;5.22;3.20;;;;;;;;;;10527024;28;20059;-56
2023/06/02 21:43:06;;;;;;;4.32;3.13;;;;;;;;;;10526511;28;20035;-56
2023/06/02 21:48:07;;;;;;;4.50;2.95;;;;;;;;;;10526489;28;20024;-57
2023/06/02 21:53:09;;;;;;;3.38;3.00;;;;;;;;;;10526982;28;20091;-56
2023/06/02 21:58:09;;;;;;;3.60;3.20;;;;;;;;;;10525904;28;20024;-56
2023/06/02 22:03:10;;;;;;;4.00;3.35;;;;;;;;;;10525703;28;20039;-56
2023/06/02 22:08:11;;;;;;;3.47;3.03;;;;;;;;;;10502053;28;20028;-55
2023/06/02 22:13:11;;;;;;;4.47;3.30;;;;;;;;;;10497675;28;20438;-56
2023/06/02 22:18:12;;;;;;;5.25;3.10;;;;;;;;;;10497397;28;20024;-55
2023/06/02 22:23:12;;;;;;;3.17;2.60;;;;;;;;;;10497261;28;20043;-56
2023/06/02 22:28:13;;;;;;;4.78;3.45;;;;;;;;;;10497399;28;20032;-57
2023/06/02 22:33:14;;;;;;;3.53;3.00;;;;;;;;;;10496858;28;20043;-56
2023/06/02 22:38:15;;;;;;;3.58;2.80;;;;;;;;;;10496639;28;20238;-57
2023/06/02 22:43:15;;;;;;;3.78;2.88;;;;;;;;;;10496509;28;20028;-57
2023/06/02 22:48:16;;;;;;;2.78;2.58;;;;;;;;;;10496250;28;20371;-57
2023/06/02 22:53:16;;;;;;;3.28;2.50;;;;;;;;;;10496146;28;20025;-55
2023/06/02 22:58:17;;;;;;;4.57;2.88;;;;;;;;;;10495753;28;20449;-55
2023/06/02 23:03:18;;;;;;;3.88;3.10;;;;;;;;;;10495636;28;20218;-56
2023/06/02 23:08:20;;;;;;;3.53;2.70;;;;;;;;;;10495478;28;20520;-55
2023/06/02 23:13:21;;;;;;;3.00;2.70;;;;;;;;;;10495082;28;20025;-56
2023/06/02 23:18:22;;;;;;;3.95;2.95;;;;;;;;;;10494073;28;20487;-56
2023/06/02 23:23:22;;;;;;;3.15;2.85;;;;;;;;;;10494851;28;20490;-55
2023/06/02 23:28:23;;;;;;;4.85;3.05;;;;;;;;;;10494894;28;20028;-56
2023/06/02 23:33:23;;;;;;;3.28;2.70;;;;;;;;;;10494321;28;20016;-56
2023/06/02 23:38:24;;;;;;;3.65;2.65;;;;;;;;;;10494167;28;20025;-56
2023/06/02 23:43:24;;;;;;;2.92;2.72;;;;;;;;;;10493986;28;20036;-56
2023/06/02 23:48:25;;;;;;;3.10;2.47;;;;;;;;;;10494239;28;20483;-55
2023/06/02 23:53:26;;;;;;;3.40;2.97;;;;;;;;;;10493545;28;20466;-55
2023/06/02 23:58:26;;;;;;;2.78;2.53;;;;;;;;;;10493247;28;20396;-55
